sensor_id;sensor_type;location;lat;lon;timestamp;P1;durP1;ratioP1;P2;durP2;ratioP2
23187;SDS011;11762;59.878;17.686;2023-05-07T00:54:28;7.57;;;2.93;;
23187;SDS011;11762;59.878;17.686;2023-05-07T00:56:55;5.13;;;2.40;;
23187;SDS011;11762;59.878;17.686;2023-05-07T00:59:22;8.13;;;2.13;;
23187;SDS011;11762;59.878;17.686;2023-05-07T01:01:50;4.90;;;2.07;;
23187;SDS011;11762;59.878;17.686;2023-05-07T01:04:18;6.97;;;2.17;;
23187;SDS011;11762;59.878;17.686;2023-05-07T01:06:45;6.83;;;2.30;;
23187;SDS011;11762;59.878;17.686;2023-05-07T01:09:14;7.20;;;2.20;;
23187;SDS011;11762;59.878;17.686;2023-05-07T01:11:42;4.27;;;1.90;;
23187;SDS011;11762;59.878;17.686;2023-05-07T01:14:10;4.97;;;2.33;;
23187;SDS011;11762;59.878;17.686;2023-05-07T01:16:38;5.83;;;2.50;;
23187;SDS011;11762;59.878;17.686;2023-05-07T01:19:06;4.80;;;2.30;;
23187;SDS011;11762;59.878;17.686;2023-05-07T01:21:36;3.90;;;2.10;;
23187;SDS011;11762;59.878;17.686;2023-05-07T01:24:06;4.77;;;2.40;;
23187;SDS011;11762;59.878;17.686;2023-05-07T01:26:33;5.93;;;2.27;;
23187;SDS011;11762;59.878;17.686;2023-05-07T01:29:00;4.93;;;2.30;;
23187;SDS011;11762;59.878;17.686;2023-05-07T01:31:27;4.33;;;2.00;;
23187;SDS011;11762;59.878;17.686;2023-05-07T01:33:55;4.73;;;2.20;;
23187;SDS011;11762;59.878;17.686;2023-05-07T01:36:25;8.13;;;2.20;;
23187;SDS011;11762;59.878;17.686;2023-05-07T01:38:54;4.40;;;2.10;;
23187;SDS011;11762;59.878;17.686;2023-05-07T01:41:25;5.00;;;2.20;;
23187;SDS011;11762;59.878;17.686;2023-05-07T01:43:52;5.77;;;2.20;;
23187;SDS011;11762;59.878;17.686;2023-05-07T01:46:21;5.27;;;2.33;;
23187;SDS011;11762;59.878;17.686;2023-05-07T01:48:48;3.87;;;1.80;;
23187;SDS011;11762;59.878;17.686;2023-05-07T01:51:16;6.23;;;2.07;;
23187;SDS011;11762;59.878;17.686;2023-05-07T01:53:44;9.77;;;2.40;;
23187;SDS011;11762;59.878;17.686;2023-05-07T01:56:15;5.37;;;2.17;;
23187;SDS011;11762;59.878;17.686;2023-05-07T01:58:44;7.63;;;2.50;;
23187;SDS011;11762;59.878;17.686;2023-05-07T02:01:12;4.13;;;2.40;;
23187;SDS011;11762;59.878;17.686;2023-05-07T02:03:39;5.20;;;2.27;;
23187;SDS011;11762;59.878;17.686;2023-05-07T02:06:07;5.90;;;2.43;;
23187;SDS011;11762;59.878;17.686;2023-05-07T02:08:34;5.40;;;2.47;;
23187;SDS011;11762;59.878;17.686;2023-05-07T02:11:01;4.50;;;2.10;;
23187;SDS011;11762;59.878;17.686;2023-05-07T02:13:31;5.10;;;2.40;;
23187;SDS011;11762;59.878;17.686;2023-05-07T02:16:00;10.03;;;2.37;;
23187;SDS011;11762;59.878;17.686;2023-05-07T02:18:27;6.77;;;2.30;;
23187;SDS011;11762;59.878;17.686;2023-05-07T02:20:54;3.53;;;1.97;;
23187;SDS011;11762;59.878;17.686;2023-05-07T02:23:21;8.37;;;2.40;;
23187;SDS011;11762;59.878;17.686;2023-05-07T02:25:49;7.47;;;2.40;;
23187;SDS011;11762;59.878;17.686;2023-05-07T02:28:16;5.57;;;2.63;;
23187;SDS011;11762;59.878;17.686;2023-05-07T02:30:43;4.53;;;2.40;;
23187;SDS011;11762;59.878;17.686;2023-05-07T02:33:11;6.30;;;2.77;;
23187;SDS011;11762;59.878;17.686;2023-05-07T02:35:39;4.47;;;2.13;;
23187;SDS011;11762;59.878;17.686;2023-05-07T02:38:06;4.03;;;2.00;;
23187;SDS011;11762;59.878;17.686;2023-05-07T02:40:35;5.03;;;2.30;;
23187;SDS011;11762;59.878;17.686;2023-05-07T02:43:04;4.57;;;2.57;;
23187;SDS011;11762;59.878;17.686;2023-05-07T02:45:31;5.07;;;2.70;;
23187;SDS011;11762;59.878;17.686;2023-05-07T02:47:59;5.97;;;2.53;;
23187;SDS011;11762;59.878;17.686;2023-05-07T02:50:27;4.33;;;2.47;;
23187;SDS011;11762;59.878;17.686;2023-05-07T02:52:54;5.07;;;2.00;;
23187;SDS011;11762;59.878;17.686;2023-05-07T02:55:22;5.20;;;2.40;;
23187;SDS011;11762;59.878;17.686;2023-05-07T02:57:48;6.77;;;2.50;;
23187;SDS011;11762;59.878;17.686;2023-05-07T03:00:16;4.27;;;2.07;;
23187;SDS011;11762;59.878;17.686;2023-05-07T03:02:45;6.70;;;2.80;;
23187;SDS011;11762;59.878;17.686;2023-05-07T03:05:12;6.93;;;2.53;;
23187;SDS011;11762;59.878;17.686;2023-05-07T03:07:40;8.83;;;3.17;;
23187;SDS011;11762;59.878;17.686;2023-05-07T03:10:10;6.97;;;2.17;;
23187;SDS011;11762;59.878;17.686;2023-05-07T03:12:37;5.77;;;2.67;;
23187;SDS011;11762;59.878;17.686;2023-05-07T03:15:04;4.53;;;2.63;;
23187;SDS011;11762;59.878;17.686;2023-05-07T03:17:33;4.90;;;2.67;;
23187;SDS011;11762;59.878;17.686;2023-05-07T03:20:00;10.13;;;2.63;;
23187;SDS011;11762;59.878;17.686;2023-05-07T03:22:27;5.33;;;2.40;;
23187;SDS011;11762;59.878;17.686;2023-05-07T03:24:55;4.43;;;2.30;;
23187;SDS011;11762;59.878;17.686;2023-05-07T03:27:22;5.73;;;2.50;;
23187;SDS011;11762;59.878;17.686;2023-05-07T03:29:49;4.97;;;2.73;;
23187;SDS011;11762;59.878;17.686;2023-05-07T03:32:17;7.53;;;2.40;;
23187;SDS011;11762;59.878;17.686;2023-05-07T03:34:44;6.93;;;2.30;;
23187;SDS011;11762;59.878;17.686;2023-05-07T03:37:11;4.33;;;2.10;;
23187;SDS011;11762;59.878;17.686;2023-05-07T03:39:38;5.97;;;2.60;;
23187;SDS011;11762;59.878;17.686;2023-05-07T03:42:06;4.30;;;2.40;;
23187;SDS011;11762;59.878;17.686;2023-05-07T03:44:33;6.17;;;2.43;;
23187;SDS011;11762;59.878;17.686;2023-05-07T03:47:01;10.10;;;2.50;;
23187;SDS011;11762;59.878;17.686;2023-05-07T03:49:28;5.57;;;2.80;;
23187;SDS011;11762;59.878;17.686;2023-05-07T03:51:55;8.93;;;3.10;;
23187;SDS011;11762;59.878;17.686;2023-05-07T03:54:22;9.47;;;2.97;;
23187;SDS011;11762;59.878;17.686;2023-05-07T03:56:49;9.97;;;2.70;;
23187;SDS011;11762;59.878;17.686;2023-05-07T03:59:18;6.17;;;3.27;;
23187;SDS011;11762;59.878;17.686;2023-05-07T04:01:45;6.37;;;2.87;;
23187;SDS011;11762;59.878;17.686;2023-05-07T04:04:12;6.63;;;2.50;;
23187;SDS011;11762;59.878;17.686;2023-05-07T04:06:39;7.73;;;3.30;;
23187;SDS011;11762;59.878;17.686;2023-05-07T04:09:06;6.83;;;3.00;;
23187;SDS011;11762;59.878;17.686;2023-05-07T04:11:34;5.30;;;2.67;;
23187;SDS011;11762;59.878;17.686;2023-05-07T04:14:01;8.50;;;3.10;;
23187;SDS011;11762;59.878;17.686;2023-05-07T04:16:30;6.10;;;2.63;;
23187;SDS011;11762;59.878;17.686;2023-05-07T04:18:57;4.87;;;2.90;;
23187;SDS011;11762;59.878;17.686;2023-05-07T04:21:24;6.67;;;2.80;;
23187;SDS011;11762;59.878;17.686;2023-05-07T04:23:51;9.13;;;2.93;;
23187;SDS011;11762;59.878;17.686;2023-05-07T04:26:18;5.07;;;2.37;;
23187;SDS011;11762;59.878;17.686;2023-05-07T04:28:46;6.23;;;2.80;;
23187;SDS011;11762;59.878;17.686;2023-05-07T04:31:13;8.77;;;2.80;;
23187;SDS011;11762;59.878;17.686;2023-05-07T04:33:41;7.33;;;2.63;;
23187;SDS011;11762;59.878;17.686;2023-05-07T04:36:08;6.97;;;2.73;;
23187;SDS011;11762;59.878;17.686;2023-05-07T04:38:36;4.83;;;2.53;;
23187;SDS011;11762;59.878;17.686;2023-05-07T04:41:04;4.50;;;2.57;;
23187;SDS011;11762;59.878;17.686;2023-05-07T04:43:32;5.97;;;2.60;;
23187;SDS011;11762;59.878;17.686;2023-05-07T04:45:59;13.77;;;5.30;;
23187;SDS011;11762;59.878;17.686;2023-05-07T04:48:26;11.43;;;4.27;;
23187;SDS011;11762;59.878;17.686;2023-05-07T04:50:55;6.73;;;3.03;;
23187;SDS011;11762;59.878;17.686;2023-05-07T04:53:22;5.50;;;2.40;;
23187;SDS011;11762;59.878;17.686;2023-05-07T04:55:54;4.37;;;2.23;;
23187;SDS011;11762;59.878;17.686;2023-05-07T04:58:22;4.00;;;1.97;;
23187;SDS011;11762;59.878;17.686;2023-05-07T05:00:49;5.73;;;2.23;;
23187;SDS011;11762;59.878;17.686;2023-05-07T05:03:16;3.47;;;2.20;;
23187;SDS011;11762;59.878;17.686;2023-05-07T05:05:44;5.20;;;2.03;;
23187;SDS011;11762;59.878;17.686;2023-05-07T05:08:12;3.10;;;1.83;;
23187;SDS011;11762;59.878;17.686;2023-05-07T05:10:39;7.27;;;2.20;;
23187;SDS011;11762;59.878;17.686;2023-05-07T05:13:08;4.53;;;2.10;;
23187;SDS011;11762;59.878;17.686;2023-05-07T05:15:37;3.97;;;1.87;;
23187;SDS011;11762;59.878;17.686;2023-05-07T05:18:04;17.73;;;3.07;;
23187;SDS011;11762;59.878;17.686;2023-05-07T05:20:31;3.23;;;1.97;;
23187;SDS011;11762;59.878;17.686;2023-05-07T05:22:58;5.13;;;1.87;;
23187;SDS011;11762;59.878;17.686;2023-05-07T05:25:27;3.90;;;2.00;;
23187;SDS011;11762;59.878;17.686;2023-05-07T05:27:54;3.70;;;2.00;;
23187;SDS011;11762;59.878;17.686;2023-05-07T05:30:21;15.37;;;6.87;;
23187;SDS011;11762;59.878;17.686;2023-05-07T05:32:48;7.63;;;3.90;;
23187;SDS011;11762;59.878;17.686;2023-05-07T05:35:15;4.77;;;2.37;;
23187;SDS011;11762;59.878;17.686;2023-05-07T05:37:45;3.47;;;2.10;;
23187;SDS011;11762;59.878;17.686;2023-05-07T05:40:13;3.23;;;1.87;;
23187;SDS011;11762;59.878;17.686;2023-05-07T05:42:42;4.73;;;2.10;;
23187;SDS011;11762;59.878;17.686;2023-05-07T05:45:09;5.00;;;1.70;;
23187;SDS011;11762;59.878;17.686;2023-05-07T05:47:37;6.00;;;2.17;;
23187;SDS011;11762;59.878;17.686;2023-05-07T05:50:05;4.63;;;2.10;;
23187;SDS011;11762;59.878;17.686;2023-05-07T05:52:32;3.27;;;1.67;;
23187;SDS011;11762;59.878;17.686;2023-05-07T05:54:59;4.70;;;1.70;;
23187;SDS011;11762;59.878;17.686;2023-05-07T05:57:26;3.37;;;1.87;;
23187;SDS011;11762;59.878;17.686;2023-05-07T05:59:55;3.00;;;1.90;;
23187;SDS011;11762;59.878;17.686;2023-05-07T06:02:22;2.90;;;1.60;;
23187;SDS011;11762;59.878;17.686;2023-05-07T06:04:49;4.40;;;2.20;;
23187;SDS011;11762;59.878;17.686;2023-05-07T06:07:19;6.60;;;1.83;;
23187;SDS011;11762;59.878;17.686;2023-05-07T06:09:46;4.77;;;2.10;;
23187;SDS011;11762;59.878;17.686;2023-05-07T06:12:13;5.63;;;2.00;;
23187;SDS011;11762;59.878;17.686;2023-05-07T06:14:42;4.40;;;2.20;;
23187;SDS011;11762;59.878;17.686;2023-05-07T06:17:11;6.13;;;2.20;;
23187;SDS011;11762;59.878;17.686;2023-05-07T06:19:38;2.67;;;1.57;;
23187;SDS011;11762;59.878;17.686;2023-05-07T06:22:05;3.80;;;1.60;;
23187;SDS011;11762;59.878;17.686;2023-05-07T06:24:32;4.53;;;1.73;;
23187;SDS011;11762;59.878;17.686;2023-05-07T06:26:59;3.83;;;1.60;;
23187;SDS011;11762;59.878;17.686;2023-05-07T06:29:26;3.50;;;1.60;;
23187;SDS011;11762;59.878;17.686;2023-05-07T06:31:55;3.20;;;1.30;;
23187;SDS011;11762;59.878;17.686;2023-05-07T06:34:23;3.13;;;1.40;;
23187;SDS011;11762;59.878;17.686;2023-05-07T06:36:50;2.80;;;1.13;;
23187;SDS011;11762;59.878;17.686;2023-05-07T06:39:17;5.67;;;1.70;;
23187;SDS011;11762;59.878;17.686;2023-05-07T06:41:45;3.90;;;1.70;;
23187;SDS011;11762;59.878;17.686;2023-05-07T06:44:12;5.27;;;1.77;;
23187;SDS011;11762;59.878;17.686;2023-05-07T06:46:42;3.57;;;1.37;;
23187;SDS011;11762;59.878;17.686;2023-05-07T06:49:10;5.43;;;1.50;;
23187;SDS011;11762;59.878;17.686;2023-05-07T06:51:38;3.07;;;1.70;;
23187;SDS011;11762;59.878;17.686;2023-05-07T06:54:05;2.23;;;1.20;;
23187;SDS011;11762;59.878;17.686;2023-05-07T06:56:33;2.60;;;1.50;;
23187;SDS011;11762;59.878;17.686;2023-05-07T06:59:00;3.23;;;1.40;;
23187;SDS011;11762;59.878;17.686;2023-05-07T07:01:27;3.30;;;1.40;;
23187;SDS011;11762;59.878;17.686;2023-05-07T07:03:55;3.50;;;1.60;;
23187;SDS011;11762;59.878;17.686;2023-05-07T07:06:22;3.53;;;1.53;;
23187;SDS011;11762;59.878;17.686;2023-05-07T07:08:50;5.20;;;1.77;;
23187;SDS011;11762;59.878;17.686;2023-05-07T07:11:17;3.20;;;1.80;;
23187;SDS011;11762;59.878;17.686;2023-05-07T07:13:45;5.10;;;1.67;;
23187;SDS011;11762;59.878;17.686;2023-05-07T07:16:12;4.73;;;1.67;;
23187;SDS011;11762;59.878;17.686;2023-05-07T07:18:40;3.93;;;1.80;;
23187;SDS011;11762;59.878;17.686;2023-05-07T07:21:07;7.20;;;1.70;;
23187;SDS011;11762;59.878;17.686;2023-05-07T07:23:33;3.33;;;1.60;;
23187;SDS011;11762;59.878;17.686;2023-05-07T07:26:02;3.00;;;1.50;;
23187;SDS011;11762;59.878;17.686;2023-05-07T07:28:29;5.60;;;1.60;;
23187;SDS011;11762;59.878;17.686;2023-05-07T07:30:56;4.07;;;1.30;;
23187;SDS011;11762;59.878;17.686;2023-05-07T07:33:23;4.13;;;1.47;;
23187;SDS011;11762;59.878;17.686;2023-05-07T07:35:50;5.97;;;1.97;;
23187;SDS011;11762;59.878;17.686;2023-05-07T07:38:17;4.97;;;1.90;;
23187;SDS011;11762;59.878;17.686;2023-05-07T07:40:54;9.40;;;2.40;;
23187;SDS011;11762;59.878;17.686;2023-05-07T07:43:22;3.93;;;1.90;;
23187;SDS011;11762;59.878;17.686;2023-05-07T07:45:49;2.90;;;1.67;;
23187;SDS011;11762;59.878;17.686;2023-05-07T07:48:16;3.97;;;1.70;;
23187;SDS011;11762;59.878;17.686;2023-05-07T07:50:43;3.20;;;1.50;;
23187;SDS011;11762;59.878;17.686;2023-05-07T07:53:10;5.50;;;2.07;;
23187;SDS011;11762;59.878;17.686;2023-05-07T07:55:38;3.30;;;1.60;;
23187;SDS011;11762;59.878;17.686;2023-05-07T07:58:05;5.67;;;1.90;;
23187;SDS011;11762;59.878;17.686;2023-05-07T08:00:34;2.87;;;1.50;;
23187;SDS011;11762;59.878;17.686;2023-05-07T08:03:01;4.30;;;1.57;;
23187;SDS011;11762;59.878;17.686;2023-05-07T08:05:28;3.30;;;1.20;;
23187;SDS011;11762;59.878;17.686;2023-05-07T08:07:55;4.50;;;1.77;;
23187;SDS011;11762;59.878;17.686;2023-05-07T08:10:23;4.87;;;1.67;;
23187;SDS011;11762;59.878;17.686;2023-05-07T08:12:50;6.10;;;1.87;;
23187;SDS011;11762;59.878;17.686;2023-05-07T08:15:17;3.27;;;1.70;;
23187;SDS011;11762;59.878;17.686;2023-05-07T08:17:46;5.90;;;1.70;;
23187;SDS011;11762;59.878;17.686;2023-05-07T08:20:13;2.83;;;1.50;;
23187;SDS011;11762;59.878;17.686;2023-05-07T08:22:40;4.10;;;1.37;;
23187;SDS011;11762;59.878;17.686;2023-05-07T08:25:07;4.63;;;1.40;;
23187;SDS011;11762;59.878;17.686;2023-05-07T08:27:35;3.20;;;1.40;;
23187;SDS011;11762;59.878;17.686;2023-05-07T08:30:02;5.13;;;1.53;;
23187;SDS011;11762;59.878;17.686;2023-05-07T08:32:30;3.43;;;1.33;;
23187;SDS011;11762;59.878;17.686;2023-05-07T08:34:59;8.63;;;1.40;;
23187;SDS011;11762;59.878;17.686;2023-05-07T08:37:27;3.90;;;1.90;;
23187;SDS011;11762;59.878;17.686;2023-05-07T08:39:53;3.17;;;1.50;;
23187;SDS011;11762;59.878;17.686;2023-05-07T08:42:20;4.17;;;1.30;;
23187;SDS011;11762;59.878;17.686;2023-05-07T08:44:51;4.60;;;1.20;;
23187;SDS011;11762;59.878;17.686;2023-05-07T08:47:19;2.93;;;1.37;;
23187;SDS011;11762;59.878;17.686;2023-05-07T08:49:51;4.33;;;1.30;;
23187;SDS011;11762;59.878;17.686;2023-05-07T08:52:21;4.77;;;1.77;;
23187;SDS011;11762;59.878;17.686;2023-05-07T08:54:49;2.57;;;1.30;;
23187;SDS011;11762;59.878;17.686;2023-05-07T08:57:16;2.43;;;1.40;;
23187;SDS011;11762;59.878;17.686;2023-05-07T08:59:44;2.67;;;1.53;;
23187;SDS011;11762;59.878;17.686;2023-05-07T09:02:12;5.87;;;1.30;;
23187;SDS011;11762;59.878;17.686;2023-05-07T09:04:39;2.30;;;1.33;;
23187;SDS011;11762;59.878;17.686;2023-05-07T09:07:06;2.87;;;1.40;;
23187;SDS011;11762;59.878;17.686;2023-05-07T09:09:35;3.53;;;1.60;;
23187;SDS011;11762;59.878;17.686;2023-05-07T09:12:02;4.10;;;1.70;;
23187;SDS011;11762;59.878;17.686;2023-05-07T09:14:29;4.10;;;1.20;;
23187;SDS011;11762;59.878;17.686;2023-05-07T09:16:56;6.40;;;1.07;;
23187;SDS011;11762;59.878;17.686;2023-05-07T09:19:23;2.20;;;1.20;;
23187;SDS011;11762;59.878;17.686;2023-05-07T09:21:57;2.80;;;0.90;;
23187;SDS011;11762;59.878;17.686;2023-05-07T09:24:25;3.73;;;0.90;;
23187;SDS011;11762;59.878;17.686;2023-05-07T09:26:55;3.50;;;1.23;;
23187;SDS011;11762;59.878;17.686;2023-05-07T09:29:24;5.57;;;1.00;;
23187;SDS011;11762;59.878;17.686;2023-05-07T09:31:53;2.77;;;1.30;;
23187;SDS011;11762;59.878;17.686;2023-05-07T09:34:21;4.17;;;0.97;;
23187;SDS011;11762;59.878;17.686;2023-05-07T09:36:48;3.77;;;1.27;;
23187;SDS011;11762;59.878;17.686;2023-05-07T09:39:15;2.83;;;1.20;;
23187;SDS011;11762;59.878;17.686;2023-05-07T09:41:43;7.63;;;1.20;;
23187;SDS011;11762;59.878;17.686;2023-05-07T09:44:12;3.13;;;1.10;;
23187;SDS011;11762;59.878;17.686;2023-05-07T09:46:41;5.50;;;1.57;;
23187;SDS011;11762;59.878;17.686;2023-05-07T09:49:11;2.23;;;0.80;;
23187;SDS011;11762;59.878;17.686;2023-05-07T09:51:43;9.20;;;1.40;;
23187;SDS011;11762;59.878;17.686;2023-05-07T09:54:14;1.90;;;1.07;;
23187;SDS011;11762;59.878;17.686;2023-05-07T09:56:42;13.50;;;3.40;;
23187;SDS011;11762;59.878;17.686;2023-05-07T09:59:13;2.90;;;1.17;;
23187;SDS011;11762;59.878;17.686;2023-05-07T10:01:41;3.10;;;1.20;;
23187;SDS011;11762;59.878;17.686;2023-05-07T10:04:08;3.30;;;1.13;;
23187;SDS011;11762;59.878;17.686;2023-05-07T10:06:36;2.33;;;1.10;;
23187;SDS011;11762;59.878;17.686;2023-05-07T10:09:04;3.40;;;1.40;;
23187;SDS011;11762;59.878;17.686;2023-05-07T10:11:31;4.63;;;1.50;;
23187;SDS011;11762;59.878;17.686;2023-05-07T10:13:59;4.60;;;1.20;;
23187;SDS011;11762;59.878;17.686;2023-05-07T10:16:29;2.97;;;1.27;;
23187;SDS011;11762;59.878;17.686;2023-05-07T10:19:01;1.93;;;1.00;;
23187;SDS011;11762;59.878;17.686;2023-05-07T10:21:29;3.47;;;1.10;;
23187;SDS011;11762;59.878;17.686;2023-05-07T10:23:57;2.13;;;1.10;;
23187;SDS011;11762;59.878;17.686;2023-05-07T10:26:25;4.80;;;1.00;;
23187;SDS011;11762;59.878;17.686;2023-05-07T10:28:58;5.60;;;1.30;;
23187;SDS011;11762;59.878;17.686;2023-05-07T10:31:36;2.23;;;1.00;;
23187;SDS011;11762;59.878;17.686;2023-05-07T10:34:26;1.93;;;0.70;;
23187;SDS011;11762;59.878;17.686;2023-05-07T10:36:58;2.27;;;1.03;;
23187;SDS011;11762;59.878;17.686;2023-05-07T10:39:26;3.17;;;1.27;;
23187;SDS011;11762;59.878;17.686;2023-05-07T10:41:53;3.90;;;1.13;;
23187;SDS011;11762;59.878;17.686;2023-05-07T10:44:26;1.80;;;0.90;;
23187;SDS011;11762;59.878;17.686;2023-05-07T10:47:08;2.10;;;1.13;;
23187;SDS011;11762;59.878;17.686;2023-05-07T10:49:37;3.03;;;1.10;;
23187;SDS011;11762;59.878;17.686;2023-05-07T10:52:36;2.63;;;1.07;;
23187;SDS011;11762;59.878;17.686;2023-05-07T10:55:18;1.83;;;1.20;;
23187;SDS011;11762;59.878;17.686;2023-05-07T10:57:47;2.90;;;1.43;;
23187;SDS011;11762;59.878;17.686;2023-05-07T11:03:11;4.37;;;1.23;;
23187;SDS011;11762;59.878;17.686;2023-05-07T11:05:40;4.73;;;1.30;;
23187;SDS011;11762;59.878;17.686;2023-05-07T11:08:07;4.03;;;1.20;;
23187;SDS011;11762;59.878;17.686;2023-05-07T11:10:47;2.50;;;1.10;;
23187;SDS011;11762;59.878;17.686;2023-05-07T11:13:16;6.60;;;1.27;;
23187;SDS011;11762;59.878;17.686;2023-05-07T11:15:44;3.57;;;0.87;;
23187;SDS011;11762;59.878;17.686;2023-05-07T11:18:14;3.77;;;1.23;;
23187;SDS011;11762;59.878;17.686;2023-05-07T11:20:52;2.70;;;1.40;;
23187;SDS011;11762;59.878;17.686;2023-05-07T11:26:42;7.83;;;1.20;;
23187;SDS011;11762;59.878;17.686;2023-05-07T11:29:11;3.40;;;1.20;;
23187;SDS011;11762;59.878;17.686;2023-05-07T11:31:39;1.77;;;0.97;;
23187;SDS011;11762;59.878;17.686;2023-05-07T11:34:07;1.63;;;1.00;;
23187;SDS011;11762;59.878;17.686;2023-05-07T11:36:36;5.63;;;1.33;;
23187;SDS011;11762;59.878;17.686;2023-05-07T11:39:22;3.97;;;0.90;;
23187;SDS011;11762;59.878;17.686;2023-05-07T11:41:51;8.00;;;1.20;;
23187;SDS011;11762;59.878;17.686;2023-05-07T11:44:18;2.63;;;1.30;;
23187;SDS011;11762;59.878;17.686;2023-05-07T11:46:45;7.60;;;1.20;;
23187;SDS011;11762;59.878;17.686;2023-05-07T11:49:14;2.53;;;1.20;;
23187;SDS011;11762;59.878;17.686;2023-05-07T11:51:41;4.63;;;1.23;;
23187;SDS011;11762;59.878;17.686;2023-05-07T11:54:08;2.77;;;1.20;;
23187;SDS011;11762;59.878;17.686;2023-05-07T11:56:37;5.70;;;1.20;;
23187;SDS011;11762;59.878;17.686;2023-05-07T11:59:04;4.73;;;1.07;;
23187;SDS011;11762;59.878;17.686;2023-05-07T12:01:31;6.50;;;1.10;;
23187;SDS011;11762;59.878;17.686;2023-05-07T12:04:02;2.27;;;1.13;;
23187;SDS011;11762;59.878;17.686;2023-05-07T12:06:35;2.77;;;1.00;;
23187;SDS011;11762;59.878;17.686;2023-05-07T12:09:04;2.30;;;1.00;;
23187;SDS011;11762;59.878;17.686;2023-05-07T12:11:32;5.33;;;1.40;;
23187;SDS011;11762;59.878;17.686;2023-05-07T12:14:00;2.03;;;1.07;;
23187;SDS011;11762;59.878;17.686;2023-05-07T12:16:27;2.80;;;1.17;;
23187;SDS011;11762;59.878;17.686;2023-05-07T12:18:55;3.87;;;1.40;;
23187;SDS011;11762;59.878;17.686;2023-05-07T12:21:24;3.70;;;1.00;;
23187;SDS011;11762;59.878;17.686;2023-05-07T12:23:52;15.03;;;1.70;;
23187;SDS011;11762;59.878;17.686;2023-05-07T12:26:19;2.40;;;1.17;;
23187;SDS011;11762;59.878;17.686;2023-05-07T12:28:47;8.10;;;1.47;;
23187;SDS011;11762;59.878;17.686;2023-05-07T12:31:14;2.80;;;1.00;;
23187;SDS011;11762;59.878;17.686;2023-05-07T12:33:42;3.73;;;1.10;;
23187;SDS011;11762;59.878;17.686;2023-05-07T12:36:11;1.50;;;0.90;;
23187;SDS011;11762;59.878;17.686;2023-05-07T12:38:39;4.13;;;1.40;;
23187;SDS011;11762;59.878;17.686;2023-05-07T12:41:08;6.30;;;1.00;;
23187;SDS011;11762;59.878;17.686;2023-05-07T12:43:37;3.23;;;1.13;;
23187;SDS011;11762;59.878;17.686;2023-05-07T12:46:05;3.47;;;1.07;;
23187;SDS011;11762;59.878;17.686;2023-05-07T12:48:33;3.17;;;1.33;;
23187;SDS011;11762;59.878;17.686;2023-05-07T12:51:02;3.77;;;1.27;;
23187;SDS011;11762;59.878;17.686;2023-05-07T12:53:29;6.07;;;1.13;;
23187;SDS011;11762;59.878;17.686;2023-05-07T12:55:57;2.27;;;1.07;;
23187;SDS011;11762;59.878;17.686;2023-05-07T12:58:27;3.77;;;1.03;;
23187;SDS011;11762;59.878;17.686;2023-05-07T13:00:56;2.53;;;1.30;;
23187;SDS011;11762;59.878;17.686;2023-05-07T13:03:25;3.47;;;1.10;;
23187;SDS011;11762;59.878;17.686;2023-05-07T13:05:54;4.43;;;1.70;;
23187;SDS011;11762;59.878;17.686;2023-05-07T13:08:26;2.17;;;1.20;;
23187;SDS011;11762;59.878;17.686;2023-05-07T13:10:54;3.10;;;1.10;;
23187;SDS011;11762;59.878;17.686;2023-05-07T13:13:21;2.93;;;1.07;;
23187;SDS011;11762;59.878;17.686;2023-05-07T13:15:49;5.57;;;1.40;;
23187;SDS011;11762;59.878;17.686;2023-05-07T13:18:16;2.00;;;1.20;;
23187;SDS011;11762;59.878;17.686;2023-05-07T13:20:44;1.80;;;0.90;;
23187;SDS011;11762;59.878;17.686;2023-05-07T13:23:11;11.27;;;1.30;;
23187;SDS011;11762;59.878;17.686;2023-05-07T13:25:38;2.37;;;1.00;;
23187;SDS011;11762;59.878;17.686;2023-05-07T13:28:05;4.93;;;1.27;;
23187;SDS011;11762;59.878;17.686;2023-05-07T13:30:32;2.07;;;0.93;;
23187;SDS011;11762;59.878;17.686;2023-05-07T13:33:01;2.67;;;1.10;;
23187;SDS011;11762;59.878;17.686;2023-05-07T13:35:28;5.37;;;1.17;;
23187;SDS011;11762;59.878;17.686;2023-05-07T13:37:55;2.17;;;1.20;;
23187;SDS011;11762;59.878;17.686;2023-05-07T13:40:22;2.57;;;1.20;;
23187;SDS011;11762;59.878;17.686;2023-05-07T13:42:50;3.23;;;1.30;;
23187;SDS011;11762;59.878;17.686;2023-05-07T13:45:17;4.93;;;1.27;;
23187;SDS011;11762;59.878;17.686;2023-05-07T13:47:44;9.03;;;1.37;;
23187;SDS011;11762;59.878;17.686;2023-05-07T13:50:16;2.97;;;1.20;;
23187;SDS011;11762;59.878;17.686;2023-05-07T13:52:43;3.70;;;1.07;;
23187;SDS011;11762;59.878;17.686;2023-05-07T13:55:15;2.20;;;1.20;;
23187;SDS011;11762;59.878;17.686;2023-05-07T13:57:42;6.47;;;1.20;;
23187;SDS011;11762;59.878;17.686;2023-05-07T14:00:10;5.07;;;1.20;;
23187;SDS011;11762;59.878;17.686;2023-05-07T14:02:38;3.87;;;1.33;;
23187;SDS011;11762;59.878;17.686;2023-05-07T14:05:05;2.57;;;1.00;;
23187;SDS011;11762;59.878;17.686;2023-05-07T14:07:35;6.67;;;1.40;;
23187;SDS011;11762;59.878;17.686;2023-05-07T14:10:02;5.00;;;1.90;;
23187;SDS011;11762;59.878;17.686;2023-05-07T14:12:31;2.63;;;1.17;;
23187;SDS011;11762;59.878;17.686;2023-05-07T14:14:58;4.53;;;1.10;;
23187;SDS011;11762;59.878;17.686;2023-05-07T14:17:25;4.43;;;0.93;;
23187;SDS011;11762;59.878;17.686;2023-05-07T14:19:53;4.27;;;1.00;;
23187;SDS011;11762;59.878;17.686;2023-05-07T14:22:20;3.07;;;1.17;;
23187;SDS011;11762;59.878;17.686;2023-05-07T14:24:49;6.50;;;1.20;;
23187;SDS011;11762;59.878;17.686;2023-05-07T14:27:16;1.83;;;1.07;;
23187;SDS011;11762;59.878;17.686;2023-05-07T14:29:43;1.70;;;1.00;;
23187;SDS011;11762;59.878;17.686;2023-05-07T14:32:10;7.07;;;1.30;;
23187;SDS011;11762;59.878;17.686;2023-05-07T14:34:38;5.03;;;1.20;;
23187;SDS011;11762;59.878;17.686;2023-05-07T14:37:05;2.17;;;1.10;;
23187;SDS011;11762;59.878;17.686;2023-05-07T14:39:32;4.40;;;1.30;;
23187;SDS011;11762;59.878;17.686;2023-05-07T14:42:00;3.83;;;1.00;;
23187;SDS011;11762;59.878;17.686;2023-05-07T14:44:27;2.27;;;1.00;;
23187;SDS011;11762;59.878;17.686;2023-05-07T14:46:54;2.87;;;1.20;;
23187;SDS011;11762;59.878;17.686;2023-05-07T14:49:21;2.10;;;0.90;;
23187;SDS011;11762;59.878;17.686;2023-05-07T14:51:49;3.40;;;1.00;;
23187;SDS011;11762;59.878;17.686;2023-05-07T14:54:16;2.00;;;1.10;;
23187;SDS011;11762;59.878;17.686;2023-05-07T14:56:42;1.77;;;0.80;;
23187;SDS011;11762;59.878;17.686;2023-05-07T14:59:11;3.00;;;1.27;;
23187;SDS011;11762;59.878;17.686;2023-05-07T15:01:38;3.20;;;1.30;;
23187;SDS011;11762;59.878;17.686;2023-05-07T15:04:10;4.20;;;1.07;;
23187;SDS011;11762;59.878;17.686;2023-05-07T15:06:37;2.47;;;1.30;;
23187;SDS011;11762;59.878;17.686;2023-05-07T15:09:04;3.07;;;1.00;;
23187;SDS011;11762;59.878;17.686;2023-05-07T15:11:33;8.87;;;1.47;;
23187;SDS011;11762;59.878;17.686;2023-05-07T15:14:00;2.37;;;1.00;;
23187;SDS011;11762;59.878;17.686;2023-05-07T15:16:28;2.50;;;1.13;;
23187;SDS011;11762;59.878;17.686;2023-05-07T15:18:55;4.70;;;1.07;;
23187;SDS011;11762;59.878;17.686;2023-05-07T15:21:22;6.30;;;1.00;;
23187;SDS011;11762;59.878;17.686;2023-05-07T15:23:49;1.50;;;1.00;;
23187;SDS011;11762;59.878;17.686;2023-05-07T15:26:16;7.60;;;1.07;;
23187;SDS011;11762;59.878;17.686;2023-05-07T15:28:43;6.80;;;1.50;;
23187;SDS011;11762;59.878;17.686;2023-05-07T15:31:10;1.40;;;0.70;;
23187;SDS011;11762;59.878;17.686;2023-05-07T15:33:38;3.80;;;1.13;;
23187;SDS011;11762;59.878;17.686;2023-05-07T15:36:06;6.03;;;1.27;;
23187;SDS011;11762;59.878;17.686;2023-05-07T15:38:33;4.40;;;1.10;;